createdAt,value
2022-12-04T00:00:32.648Z,26.90
2022-12-04T00:02:59.474Z,30.63
2022-12-04T00:05:26.279Z,27.30
2022-12-04T00:07:53.117Z,27.67
2022-12-04T00:10:20.061Z,29.67
2022-12-04T00:12:46.866Z,29.43
2022-12-04T00:15:25.197Z,28.67
2022-12-04T00:17:52.899Z,32.17
2022-12-04T00:20:19.895Z,34.60
2022-12-04T00:22:46.951Z,30.83
2022-12-04T00:25:13.749Z,33.07
2022-12-04T00:27:40.706Z,28.00
2022-12-04T00:30:08.414Z,28.90
2022-12-04T00:32:35.405Z,28.27
2022-12-04T00:35:02.299Z,27.90
2022-12-04T00:37:29.238Z,31.40
2022-12-04T00:39:56.221Z,31.07
2022-12-04T00:42:23.298Z,31.83
2022-12-04T00:44:50.169Z,31.30
2022-12-04T00:47:16.944Z,29.00
2022-12-04T00:49:43.806Z,35.63
2022-12-04T00:52:10.628Z,28.13
2022-12-04T00:54:37.428Z,28.90
2022-12-04T00:57:04.346Z,29.33
2022-12-04T00:59:31.160Z,29.93
2022-12-04T01:01:57.969Z,29.60
2022-12-04T01:04:24.784Z,27.50
2022-12-04T01:06:51.676Z,30.67
2022-12-04T01:09:18.884Z,28.60
2022-12-04T01:11:46.062Z,29.07
2022-12-04T01:14:12.887Z,28.83
2022-12-04T01:16:40.609Z,33.77
2022-12-04T01:19:11.295Z,29.67
2022-12-04T01:21:39.060Z,27.90
2022-12-04T01:24:06.589Z,32.70
2022-12-04T01:26:33.577Z,30.57
2022-12-04T01:29:00.616Z,31.27
2022-12-04T01:31:27.633Z,33.87
2022-12-04T01:33:54.545Z,33.10
2022-12-04T01:36:25.818Z,35.13
2022-12-04T01:38:52.818Z,36.43
2022-12-04T01:41:27.611Z,34.67
2022-12-04T01:44:15.875Z,35.27
2022-12-04T01:46:45.977Z,35.87
2022-12-04T01:49:38.387Z,34.47
2022-12-04T01:52:21.839Z,35.57
2022-12-04T01:54:59.380Z,33.43
2022-12-04T01:57:31.445Z,34.13
2022-12-04T02:00:09.953Z,33.63
2022-12-04T02:02:43.634Z,41.57
2022-12-04T02:05:21.820Z,34.63
2022-12-04T02:07:52.045Z,29.03
2022-12-04T02:10:24.398Z,36.73
2022-12-04T02:13:09.538Z,34.00
2022-12-04T02:16:23.302Z,35.40
2022-12-04T02:19:00.725Z,31.90
2022-12-04T02:21:37.919Z,32.87
2022-12-04T02:24:37.200Z,38.80
2022-12-04T02:27:24.856Z,35.07
2022-12-04T02:29:59.984Z,32.43
2022-12-04T02:32:50.579Z,32.93
2022-12-04T02:35:40.311Z,37.60
2022-12-04T02:38:18.666Z,35.07
2022-12-04T02:41:03.276Z,33.87
2022-12-04T02:43:37.729Z,44.00
2022-12-04T02:46:14.071Z,35.87
2022-12-04T02:48:43.219Z,35.30
2022-12-04T02:51:14.929Z,32.43
2022-12-04T02:53:48.641Z,33.00
2022-12-04T02:56:22.647Z,33.73
2022-12-04T02:58:59.197Z,33.10
2022-12-04T03:01:40.706Z,35.10
2022-12-04T03:04:28.318Z,36.30
2022-12-04T03:07:03.255Z,31.93
2022-12-04T03:09:45.376Z,32.57
2022-12-04T03:12:40.235Z,33.73
2022-12-04T03:15:17.402Z,33.17
2022-12-04T03:18:09.489Z,36.60
2022-12-04T03:20:38.810Z,33.27
2022-12-04T03:23:39.685Z,31.20
2022-12-04T03:26:28.738Z,31.90
2022-12-04T03:29:15.827Z,35.17
2022-12-04T03:32:14.307Z,32.27
2022-12-04T03:35:07.762Z,37.77
2022-12-04T03:37:54.361Z,40.03
2022-12-04T03:40:48.775Z,33.67
2022-12-04T03:43:37.737Z,40.93
2022-12-04T03:46:25.017Z,41.40
2022-12-04T03:49:07.292Z,39.83
2022-12-04T03:51:43.692Z,42.03
2022-12-04T03:54:21.692Z,40.77
2022-12-04T03:56:56.291Z,39.63
2022-12-04T03:59:30.354Z,37.93
2022-12-04T04:02:00.508Z,38.97
2022-12-04T04:04:39.473Z,38.20
2022-12-04T04:07:33.553Z,41.43
2022-12-04T04:10:10.940Z,41.03
2022-12-04T04:12:44.226Z,47.70
2022-12-04T04:15:34.942Z,37.40
2022-12-04T04:18:20.801Z,39.30
2022-12-04T04:21:15.834Z,47.60
2022-12-04T04:24:08.584Z,32.83
2022-12-04T04:26:42.405Z,36.53
2022-12-04T04:29:12.413Z,36.30
2022-12-04T04:31:50.366Z,32.20
2022-12-04T04:34:55.311Z,35.93
2022-12-04T04:37:47.888Z,35.27
2022-12-04T04:40:37.265Z,36.70
2022-12-04T04:43:11.031Z,36.53
2022-12-04T04:45:47.951Z,34.00
2022-12-04T04:48:23.736Z,31.47
2022-12-04T04:50:51.025Z,34.03
2022-12-04T04:53:26.940Z,38.97
2022-12-04T04:55:54.204Z,36.20
2022-12-04T04:58:22.002Z,37.63
2022-12-04T05:01:04.244Z,40.73
2022-12-04T05:03:32.048Z,49.27
2022-12-04T05:05:59.345Z,40.27
2022-12-04T05:08:26.423Z,44.27
2022-12-04T05:10:54.012Z,47.27
2022-12-04T05:13:21.959Z,36.63
2022-12-04T05:16:03.359Z,49.20
2022-12-04T05:18:31.207Z,41.97
2022-12-04T05:20:58.184Z,54.33
2022-12-04T05:23:25.687Z,42.77
2022-12-04T05:26:00.978Z,43.20
2022-12-04T05:28:28.427Z,39.73
2022-12-04T05:31:01.438Z,42.37
2022-12-04T05:33:29.088Z,37.63
2022-12-04T05:36:08.440Z,45.40
2022-12-04T05:38:36.078Z,40.40
2022-12-04T05:41:05.677Z,42.37
2022-12-04T05:43:33.151Z,42.73
2022-12-04T05:46:08.141Z,34.97
2022-12-04T05:48:35.976Z,37.40
2022-12-04T05:51:08.177Z,36.60
2022-12-04T05:53:35.435Z,35.87
2022-12-04T05:56:04.320Z,43.37
2022-12-04T05:58:31.671Z,40.73
2022-12-04T06:00:58.467Z,47.93
2022-12-04T06:03:25.341Z,39.73
2022-12-04T06:05:52.273Z,53.10
2022-12-04T06:08:19.182Z,49.10
2022-12-04T06:10:46.049Z,36.80
2022-12-04T06:13:12.972Z,39.17
2022-12-04T06:15:40.572Z,36.60
2022-12-04T06:18:07.749Z,39.60
2022-12-04T06:20:35.031Z,39.07
2022-12-04T06:23:02.039Z,35.13
2022-12-04T06:25:28.979Z,43.60
2022-12-04T06:27:55.989Z,38.47
2022-12-04T06:30:22.951Z,30.97
2022-12-04T06:32:49.893Z,35.30
2022-12-04T06:35:16.866Z,31.50
2022-12-04T06:37:43.681Z,32.17
2022-12-04T06:40:11.037Z,35.43
2022-12-04T06:42:37.866Z,33.37
2022-12-04T06:45:05.460Z,36.20
2022-12-04T06:47:32.342Z,37.50
2022-12-04T06:49:59.353Z,39.30
2022-12-04T06:52:26.267Z,37.77
2022-12-04T06:54:53.196Z,37.07
2022-12-04T06:57:20.014Z,34.77
2022-12-04T06:59:46.789Z,38.87
2022-12-04T07:02:13.760Z,37.87
2022-12-04T07:04:40.693Z,40.23
2022-12-04T07:07:10.089Z,39.47
2022-12-04T07:09:37.271Z,37.70
2022-12-04T07:12:04.444Z,42.30
2022-12-04T07:14:32.194Z,38.50
2022-12-04T07:16:59.042Z,30.63
2022-12-04T07:19:25.933Z,35.93
2022-12-04T07:21:52.724Z,34.07
2022-12-04T07:24:19.609Z,49.63
2022-12-04T07:26:46.538Z,43.33
2022-12-04T07:29:13.614Z,38.30
2022-12-04T07:31:40.762Z,50.60
2022-12-04T07:34:07.913Z,40.57
2022-12-04T07:36:34.749Z,42.23
2022-12-04T07:39:01.627Z,40.20
2022-12-04T07:41:28.435Z,39.57
2022-12-04T07:43:55.339Z,37.77
2022-12-04T07:46:25.758Z,40.67
2022-12-04T07:48:55.280Z,36.73
2022-12-04T07:51:26.063Z,37.50
2022-12-04T07:53:54.808Z,33.30
2022-12-04T07:56:21.893Z,31.63
2022-12-04T07:58:48.799Z,33.60
2022-12-04T08:01:23.016Z,34.60
2022-12-04T08:03:53.013Z,40.10
2022-12-04T08:06:22.347Z,38.53
2022-12-04T08:08:49.967Z,38.10
2022-12-04T08:11:22.376Z,33.00
2022-12-04T08:13:57.606Z,39.63
2022-12-04T08:16:25.829Z,39.03
2022-12-04T08:18:54.127Z,36.00
2022-12-04T08:21:24.954Z,34.53
2022-12-04T08:23:54.316Z,35.83
2022-12-04T08:26:24.264Z,32.47
2022-12-04T08:28:54.470Z,31.83
2022-12-04T08:31:27.884Z,30.73
2022-12-04T08:33:57.378Z,30.53
2022-12-04T08:36:24.840Z,33.07
2022-12-04T08:38:52.272Z,36.43
2022-12-04T08:41:23.902Z,31.97
2022-12-04T08:43:54.447Z,31.93
2022-12-04T08:46:22.503Z,28.93
2022-12-04T08:48:49.526Z,29.40
2022-12-04T08:51:29.674Z,30.67
2022-12-04T08:53:59.494Z,30.97
2022-12-04T08:56:27.841Z,28.93
2022-12-04T08:58:56.639Z,29.33
2022-12-04T09:01:24.069Z,29.40
2022-12-04T09:03:51.059Z,30.00
2022-12-04T09:06:18.332Z,29.10
2022-12-04T09:08:45.277Z,31.37
2022-12-04T09:11:21.860Z,29.03
2022-12-04T09:13:48.944Z,30.73
2022-12-04T09:16:22.553Z,30.33
2022-12-04T09:18:49.723Z,34.00
2022-12-04T09:21:20.199Z,29.60
2022-12-04T09:23:47.380Z,31.30
2022-12-04T09:26:22.019Z,30.30
2022-12-04T09:28:50.233Z,29.53
2022-12-04T09:31:19.014Z,26.77
2022-12-04T09:33:46.347Z,29.63
2022-12-04T09:36:16.301Z,29.00
2022-12-04T09:38:49.977Z,31.90
2022-12-04T09:42:00.136Z,26.13
2022-12-04T09:44:41.059Z,26.93
2022-12-04T09:47:34.386Z,26.80
2022-12-04T09:50:32.840Z,22.23
2022-12-04T09:53:09.062Z,27.63
2022-12-04T09:55:49.309Z,26.20
2022-12-04T09:58:40.028Z,25.77
2022-12-04T10:01:27.546Z,22.50
2022-12-04T10:03:59.877Z,25.40
2022-12-04T10:06:53.688Z,26.67
2022-12-04T10:09:31.797Z,23.50
2022-12-04T10:12:20.237Z,25.23
2022-12-04T10:15:23.500Z,25.17
2022-12-04T10:18:39.311Z,23.90
2022-12-04T10:21:18.275Z,26.30
2022-12-04T10:24:09.512Z,23.00
2022-12-04T10:26:47.083Z,24.20
2022-12-04T10:29:22.961Z,24.63
2022-12-04T10:31:54.862Z,22.23
2022-12-04T10:34:29.541Z,25.37
2022-12-04T10:37:06.805Z,24.97
2022-12-04T10:39:43.088Z,22.63
2022-12-04T10:42:21.538Z,21.83
2022-12-04T10:44:48.360Z,22.77
2022-12-04T10:47:15.427Z,24.03
2022-12-04T10:49:42.840Z,22.20
2022-12-04T10:52:13.597Z,22.33
2022-12-04T10:54:48.740Z,23.33
2022-12-04T10:57:16.392Z,23.37
2022-12-04T10:59:56.198Z,23.17
2022-12-04T11:02:27.986Z,21.07
2022-12-04T11:05:01.775Z,20.40
2022-12-04T11:07:34.382Z,22.47
2022-12-04T11:10:22.928Z,20.97
2022-12-04T11:13:15.981Z,20.40
2022-12-04T11:15:52.552Z,20.33
2022-12-04T11:18:24.463Z,18.37
2022-12-04T11:20:56.484Z,20.50
2022-12-04T11:23:24.349Z,19.00
2022-12-04T11:25:54.714Z,21.13
2022-12-04T11:28:41.097Z,25.93
2022-12-04T11:31:11.168Z,22.67
2022-12-04T11:33:43.671Z,20.47
2022-12-04T11:36:30.820Z,21.43
2022-12-04T11:39:13.487Z,19.20
2022-12-04T11:41:40.424Z,18.90
2022-12-04T11:44:22.390Z,21.77
2022-12-04T11:46:59.093Z,21.17
2022-12-04T11:49:27.589Z,23.90
2022-12-04T11:52:38.855Z,32.43
2022-12-04T11:55:29.118Z,23.93
2022-12-04T11:58:11.191Z,22.07
2022-12-04T12:00:57.417Z,24.00
2022-12-04T12:03:42.729Z,20.63
2022-12-04T12:06:30.634Z,23.30
2022-12-04T12:09:14.251Z,23.33
2022-12-04T12:12:12.342Z,23.30
2022-12-04T12:15:04.076Z,23.13
2022-12-04T12:17:47.835Z,21.87
2022-12-04T12:20:38.259Z,21.57
2022-12-04T12:23:48.803Z,19.50
2022-12-04T12:26:18.318Z,20.33
2022-12-04T12:29:52.456Z,19.80
2022-12-04T12:32:43.455Z,19.07
2022-12-04T12:35:36.373Z,21.10
2022-12-04T12:38:11.121Z,20.80
2022-12-04T12:40:43.398Z,20.27
2022-12-04T12:43:16.697Z,20.67
2022-12-04T12:46:01.282Z,25.90
2022-12-04T12:48:58.591Z,25.53
2022-12-04T12:51:42.256Z,22.87
2022-12-04T12:54:27.226Z,23.37
2022-12-04T12:57:03.174Z,23.77
2022-12-04T12:59:32.441Z,20.53
2022-12-04T13:02:14.140Z,20.23
2022-12-04T13:04:44.603Z,19.87
2022-12-04T13:07:58.086Z,20.00
2022-12-04T13:10:43.883Z,18.93
2022-12-04T13:13:31.050Z,17.70
2022-12-04T13:16:05.350Z,19.13
2022-12-04T13:18:57.036Z,20.10
2022-12-04T13:21:42.447Z,19.80
2022-12-04T13:24:36.220Z,20.77
2022-12-04T13:27:34.752Z,21.10
2022-12-04T13:30:14.907Z,19.43
2022-12-04T13:33:00.059Z,18.60
2022-12-04T13:35:50.427Z,21.87
2022-12-04T13:39:06.890Z,20.03
2022-12-04T13:41:39.141Z,21.40
2022-12-04T13:44:24.311Z,30.27
2022-12-04T13:47:02.610Z,28.27
2022-12-04T13:49:32.554Z,25.13
2022-12-04T13:52:02.546Z,21.63
2022-12-04T13:54:36.523Z,32.93
2022-12-04T13:57:15.380Z,42.07
2022-12-04T13:59:43.484Z,27.37
2022-12-04T14:02:55.574Z,32.37
2022-12-04T14:05:32.811Z,24.43
2022-12-04T14:08:24.341Z,23.30
2022-12-04T14:11:07.355Z,23.67
2022-12-04T14:13:46.126Z,23.17
2022-12-04T14:16:35.885Z,22.17
2022-12-04T14:19:04.304Z,25.93
2022-12-04T14:21:45.636Z,26.10
2022-12-04T14:24:35.995Z,25.80
2022-12-04T14:27:42.809Z,23.37
2022-12-04T14:30:29.653Z,25.87
2022-12-04T14:33:20.933Z,23.93
2022-12-04T14:36:11.491Z,29.03
2022-12-04T14:38:39.352Z,23.27
2022-12-04T14:41:06.481Z,24.30
2022-12-04T14:43:41.431Z,23.67
2022-12-04T14:46:35.078Z,25.70
2022-12-04T14:49:35.759Z,23.67
2022-12-04T14:52:25.608Z,21.80
2022-12-04T14:55:07.587Z,21.80
2022-12-04T14:58:25.004Z,22.83
2022-12-04T15:00:54.994Z,21.53
2022-12-04T15:03:22.771Z,22.63
2022-12-04T15:05:51.271Z,21.70
2022-12-04T15:08:20.270Z,21.53
2022-12-04T15:11:09.686Z,22.70
2022-12-04T15:13:38.616Z,19.87
2022-12-04T15:16:19.335Z,19.93
2022-12-04T15:19:00.650Z,20.90
2022-12-04T15:21:45.901Z,20.17
2022-12-04T15:24:20.172Z,22.33
2022-12-04T15:26:48.532Z,30.67
2022-12-04T15:29:24.047Z,33.27
2022-12-04T15:31:56.884Z,21.63
2022-12-04T15:34:45.626Z,20.83
2022-12-04T15:37:28.996Z,22.13
2022-12-04T15:39:57.530Z,19.63
2022-12-04T15:42:24.576Z,19.63
2022-12-04T15:45:01.935Z,19.80
2022-12-04T15:47:32.892Z,18.73
2022-12-04T15:50:15.830Z,17.07
2022-12-04T15:53:05.414Z,19.50
2022-12-04T15:55:49.885Z,19.50
2022-12-04T15:58:39.161Z,20.47
2022-12-04T16:01:09.722Z,20.90
2022-12-04T16:03:42.667Z,24.83
2022-12-04T16:06:29.175Z,21.87
2022-12-04T16:09:01.379Z,27.10
2022-12-04T16:11:36.626Z,25.30
2022-12-04T16:14:08.092Z,30.67
2022-12-04T16:16:37.508Z,33.30
2022-12-04T16:19:27.556Z,29.53
2022-12-04T16:21:57.883Z,29.43
2022-12-04T16:24:25.167Z,32.25
2022-12-04T16:26:55.260Z,30.17
2022-12-04T16:29:23.558Z,32.13
2022-12-04T16:31:51.095Z,32.27
2022-12-04T16:34:18.264Z,36.57
2022-12-04T16:36:45.248Z,37.80
2022-12-04T16:39:12.068Z,38.43
2022-12-04T16:41:40.132Z,40.30
2022-12-04T16:44:14.925Z,39.53
2022-12-04T16:46:43.084Z,37.43
2022-12-04T16:49:12.924Z,36.03
2022-12-04T16:51:46.114Z,38.90
2022-12-04T16:54:14.037Z,37.37
2022-12-04T16:56:41.717Z,37.33
2022-12-04T16:59:11.956Z,37.40
2022-12-04T17:01:47.500Z,40.17
2022-12-04T17:04:15.565Z,39.00
2022-12-04T17:06:42.655Z,38.60
2022-12-04T17:09:09.804Z,35.33
2022-12-04T17:11:36.706Z,36.70
2022-12-04T17:14:07.051Z,34.93
2022-12-04T17:16:43.310Z,33.47
2022-12-04T17:19:11.596Z,29.27
2022-12-04T17:21:40.252Z,30.83
2022-12-04T17:24:08.260Z,29.50
2022-12-04T17:26:35.143Z,28.17
2022-12-04T17:29:01.951Z,29.73
2022-12-04T17:31:28.896Z,28.77
2022-12-04T17:33:56.903Z,29.67
2022-12-04T17:36:27.513Z,28.43
2022-12-04T17:38:57.766Z,28.60
2022-12-04T17:41:25.420Z,28.23
2022-12-04T17:43:52.308Z,28.50
2022-12-04T17:46:22.809Z,26.67
2022-12-04T17:48:50.019Z,30.07
2022-12-04T17:51:22.831Z,31.33
2022-12-04T17:53:49.859Z,26.37
2022-12-04T17:56:22.495Z,27.23
2022-12-04T17:58:50.574Z,26.07
2022-12-04T18:01:24.697Z,24.80
2022-12-04T18:04:01.959Z,26.17
2022-12-04T18:06:39.023Z,25.23
2022-12-04T18:09:08.882Z,25.03
2022-12-04T18:11:38.326Z,23.10
2022-12-04T18:14:12.330Z,26.70
2022-12-04T18:16:44.501Z,27.57
2022-12-04T18:19:12.709Z,35.67
2022-12-04T18:21:40.350Z,28.97
2022-12-04T18:24:07.791Z,24.37
2022-12-04T18:26:45.934Z,25.10
2022-12-04T18:29:18.050Z,25.30
2022-12-04T18:31:46.262Z,21.77
2022-12-04T18:34:13.854Z,25.87
2022-12-04T18:36:42.571Z,28.63
2022-12-04T18:39:15.270Z,23.97
2022-12-04T18:41:42.617Z,24.90
2022-12-04T18:44:10.688Z,25.63
2022-12-04T18:46:38.593Z,23.50
2022-12-04T18:49:07.012Z,26.17
2022-12-04T18:51:40.307Z,24.97
2022-12-04T18:54:22.819Z,22.50
2022-12-04T18:56:50.643Z,23.60
2022-12-04T18:59:21.288Z,23.97
2022-12-04T19:01:50.375Z,23.77
2022-12-04T19:04:19.323Z,28.17
2022-12-04T19:06:53.635Z,26.17
2022-12-04T19:09:47.274Z,25.93
2022-12-04T19:12:12.910Z,25.87
2022-12-04T19:14:40.048Z,24.97
2022-12-04T19:17:07.386Z,23.20
2022-12-04T19:19:34.322Z,27.57
2022-12-04T19:22:02.039Z,24.93
2022-12-04T19:24:28.880Z,24.07
2022-12-04T19:26:56.761Z,27.53
2022-12-04T19:29:23.789Z,22.43
2022-12-04T19:31:54.680Z,22.17
2022-12-04T19:34:24.628Z,22.50
2022-12-04T19:36:53.998Z,23.43
2022-12-04T19:39:20.835Z,24.27
2022-12-04T19:41:47.688Z,25.13
2022-12-04T19:44:46.704Z,26.40
2022-12-04T19:47:01.633Z,25.90
2022-12-04T19:49:29.559Z,24.33
2022-12-04T19:51:56.431Z,25.97
2022-12-04T19:54:23.774Z,22.43
2022-12-04T19:56:52.485Z,21.73
2022-12-04T19:59:20.418Z,21.13
2022-12-04T20:01:47.574Z,19.67
2022-12-04T20:04:14.523Z,23.97
2022-12-04T20:06:44.539Z,19.20
2022-12-04T20:09:20.174Z,20.27
2022-12-04T20:11:47.602Z,21.17
2022-12-04T20:14:14.495Z,20.27
2022-12-04T20:16:42.008Z,20.07
2022-12-04T20:19:14.941Z,20.50
2022-12-04T20:21:42.724Z,21.93
2022-12-04T20:24:14.618Z,21.90
2022-12-04T20:26:43.902Z,22.17
2022-12-04T20:29:14.647Z,22.90
2022-12-04T20:31:45.096Z,21.30
2022-12-04T20:34:16.306Z,21.30
2022-12-04T20:36:45.458Z,22.63
2022-12-04T20:39:13.971Z,19.53
2022-12-04T20:41:41.336Z,21.20
2022-12-04T20:44:13.243Z,24.43
2022-12-04T20:46:40.646Z,21.43
2022-12-04T20:49:17.223Z,20.83
2022-12-04T20:51:47.976Z,22.90
2022-12-04T20:54:18.568Z,22.43
2022-12-04T20:56:48.495Z,18.23
2022-12-04T20:59:16.426Z,18.93
2022-12-04T21:01:43.556Z,16.33
2022-12-04T21:04:12.729Z,18.17
2022-12-04T21:06:40.965Z,16.50
2022-12-04T21:09:18.255Z,19.83
2022-12-04T21:11:49.135Z,18.20
2022-12-04T21:14:41.996Z,18.37
2022-12-04T21:17:14.368Z,18.50
2022-12-04T21:19:41.182Z,19.70
2022-12-04T21:22:08.718Z,20.97
2022-12-04T21:24:38.454Z,18.77
2022-12-04T21:27:13.290Z,21.23
2022-12-04T21:29:43.559Z,21.17
2022-12-04T21:32:10.387Z,19.43
2022-12-04T21:34:37.175Z,19.90
2022-12-04T21:37:04.063Z,18.63
2022-12-04T21:39:30.913Z,18.73
2022-12-04T21:42:16.232Z,17.17
2022-12-04T21:44:43.064Z,20.97
2022-12-04T21:47:09.980Z,20.13
2022-12-04T21:49:37.005Z,22.20
2022-12-04T21:52:03.828Z,21.53
2022-12-04T21:54:30.922Z,21.17
2022-12-04T21:56:58.612Z,18.67
2022-12-04T21:59:26.285Z,19.43
2022-12-04T22:01:54.038Z,23.70
2022-12-04T22:04:21.782Z,23.23
2022-12-04T22:06:48.983Z,18.73
2022-12-04T22:09:15.805Z,21.47
2022-12-04T22:11:43.848Z,20.00
2022-12-04T22:14:11.734Z,19.63
2022-12-04T22:16:42.907Z,19.73
2022-12-04T22:19:11.973Z,20.57
2022-12-04T22:21:39.693Z,17.83
2022-12-04T22:24:07.452Z,20.00
2022-12-04T22:26:34.413Z,18.43
2022-12-04T22:29:01.967Z,20.30
2022-12-04T22:31:31.437Z,21.27
2022-12-04T22:34:00.611Z,21.23
2022-12-04T22:36:32.981Z,19.50
2022-12-04T22:39:15.209Z,20.40
2022-12-04T22:41:42.002Z,20.10
2022-12-04T22:44:08.833Z,18.13
2022-12-04T22:46:35.728Z,21.43
2022-12-04T22:49:02.611Z,21.17
2022-12-04T22:51:30.011Z,22.73
2022-12-04T22:53:58.255Z,18.40
2022-12-04T22:56:30.876Z,21.27
2022-12-04T22:58:58.917Z,20.67
2022-12-04T23:01:32.499Z,18.63
2022-12-04T23:04:01.004Z,18.73
2022-12-04T23:06:30.694Z,17.20
2022-12-04T23:09:06.377Z,19.43
2022-12-04T23:11:33.978Z,19.13
2022-12-04T23:14:04.938Z,18.50
2022-12-04T23:16:35.216Z,19.03
2022-12-04T23:19:02.683Z,18.13
2022-12-04T23:21:29.610Z,16.70
2022-12-04T23:23:57.201Z,17.50
2022-12-04T23:26:30.094Z,16.67
2022-12-04T23:28:57.773Z,16.97
2022-12-04T23:31:25.334Z,17.60
2022-12-04T23:33:52.268Z,17.57
2022-12-04T23:36:19.149Z,16.30
2022-12-04T23:38:46.251Z,15.40
2022-12-04T23:41:22.832Z,16.73
2022-12-04T23:43:50.974Z,19.73
2022-12-04T23:46:23.992Z,17.43
2022-12-04T23:48:50.846Z,19.03
2022-12-04T23:51:19.341Z,19.87
2022-12-04T23:53:47.040Z,18.43
2022-12-04T23:56:19.158Z,16.07
2022-12-04T23:58:49.036Z,20.33
